createdAt,value
2016-08-12T00:00:29.018Z,1010.99
2016-08-12T00:01:29.007Z,1010.99
2016-08-12T00:02:28.997Z,1011.04
2016-08-12T00:03:28.985Z,1010.97
2016-08-12T00:04:28.973Z,1011.03
2016-08-12T00:05:28.963Z,1011.01
2016-08-12T00:06:28.951Z,1010.98
2016-08-12T00:07:28.943Z,1010.99
2016-08-12T00:08:28.927Z,1010.94
2016-08-12T00:09:28.922Z,1010.96
2016-08-12T00:10:28.909Z,1010.93
2016-08-12T00:11:28.899Z,1011
2016-08-12T00:12:28.884Z,1010.96
2016-08-12T00:13:28.874Z,1010.94
2016-08-12T00:14:28.860Z,1010.98
2016-08-12T00:15:28.849Z,1010.99
2016-08-12T00:16:28.841Z,1011.02
2016-08-12T00:17:28.827Z,1010.98
2016-08-12T00:18:28.818Z,1010.96
2016-08-12T00:19:28.806Z,1010.99
2016-08-12T00:20:28.796Z,1010.96
2016-08-12T00:21:28.786Z,1010.95
2016-08-12T00:22:28.773Z,1010.96
2016-08-12T00:23:28.760Z,1010.93
2016-08-12T00:24:28.749Z,1010.96
2016-08-12T00:25:28.744Z,1010.93
2016-08-12T00:26:28.728Z,1010.92
2016-08-12T00:27:28.719Z,1010.95
2016-08-12T00:28:28.707Z,1010.94
2016-08-12T00:29:28.695Z,1010.89
2016-08-12T00:30:28.683Z,1010.92
2016-08-12T00:31:28.679Z,1010.9
2016-08-12T00:32:28.660Z,1010.86
2016-08-12T00:33:28.653Z,1010.87
2016-08-12T00:34:28.639Z,1010.85
2016-08-12T00:35:28.628Z,1010.9
2016-08-12T00:36:28.616Z,1010.84
2016-08-12T00:37:28.606Z,1010.85
2016-08-12T00:38:28.594Z,1010.85
2016-08-12T00:39:28.585Z,1010.87
2016-08-12T00:40:28.572Z,1010.83
2016-08-12T00:41:28.562Z,1010.85
2016-08-12T00:42:28.552Z,1010.85
2016-08-12T00:43:28.538Z,1010.85
2016-08-12T00:44:28.527Z,1010.84
2016-08-12T00:45:28.518Z,1010.85
2016-08-12T00:46:28.508Z,1010.84
2016-08-12T00:47:28.494Z,1010.8
2016-08-12T00:48:28.488Z,1010.83
2016-08-12T00:49:28.481Z,1010.82
2016-08-12T00:50:28.470Z,1010.8
2016-08-12T00:51:28.454Z,1010.76
2016-08-12T00:52:28.442Z,1010.76
2016-08-12T00:53:28.431Z,1010.74
2016-08-12T00:54:28.420Z,1010.79
2016-08-12T00:55:28.412Z,1010.74
2016-08-12T00:56:28.399Z,1010.74
2016-08-12T00:57:28.388Z,1010.79
2016-08-12T00:58:28.377Z,1010.78
2016-08-12T00:59:28.366Z,1010.75
2016-08-12T01:00:28.365Z,1010.83
2016-08-12T01:01:28.357Z,1010.82
2016-08-12T01:02:28.332Z,1010.81
2016-08-12T01:03:28.322Z,1010.78
2016-08-12T01:04:28.312Z,1010.8
2016-08-12T01:05:28.299Z,1010.8
2016-08-12T01:06:28.290Z,1010.76
2016-08-12T01:07:28.279Z,1010.8
2016-08-12T01:08:28.269Z,1010.8
2016-08-12T01:09:28.259Z,1010.84
2016-08-12T01:10:28.246Z,1010.8
2016-08-12T01:11:28.233Z,1010.75
2016-08-12T01:12:28.224Z,1010.75
2016-08-12T01:13:28.213Z,1010.73
2016-08-12T01:14:28.202Z,1010.72
2016-08-12T01:15:28.192Z,1010.73
2016-08-12T01:16:28.181Z,1010.72
2016-08-12T01:17:28.179Z,1010.79
2016-08-12T01:18:28.157Z,1010.76
2016-08-12T01:19:28.147Z,1010.77
2016-08-12T01:20:28.137Z,1010.75
2016-08-12T01:21:28.127Z,1010.78
2016-08-12T01:22:28.116Z,1010.75
2016-08-12T01:23:28.105Z,1010.7
2016-08-12T01:24:28.094Z,1010.7
2016-08-12T01:25:28.086Z,1010.72
2016-08-12T01:26:28.071Z,1010.72
2016-08-12T01:27:28.061Z,1010.68
2016-08-12T01:28:28.049Z,1010.68
2016-08-12T01:29:28.039Z,1010.69
2016-08-12T01:30:28.030Z,1010.69
2016-08-12T01:31:28.018Z,1010.7
2016-08-12T01:32:28.007Z,1010.67
2016-08-12T01:33:27.996Z,1010.68
2016-08-12T01:34:27.985Z,1010.72
2016-08-12T01:35:27.977Z,1010.73
2016-08-12T01:36:27.966Z,1010.74
2016-08-12T01:37:27.955Z,1010.75
2016-08-12T01:38:27.943Z,1010.79
2016-08-12T01:39:27.932Z,1010.76
2016-08-12T01:40:27.923Z,1010.77
2016-08-12T01:41:27.912Z,1010.83
2016-08-12T01:42:27.903Z,1010.77
2016-08-12T01:43:27.889Z,1010.79
2016-08-12T01:44:27.880Z,1010.78
2016-08-12T01:45:27.868Z,1010.76
2016-08-12T01:46:27.856Z,1010.77
2016-08-12T01:47:27.849Z,1010.78
2016-08-12T01:49:27.825Z,1010.79
2016-08-12T01:50:27.817Z,1010.75
2016-08-12T01:51:27.806Z,1010.77
2016-08-12T01:52:27.792Z,1010.82
2016-08-12T01:53:27.781Z,1010.8
2016-08-12T01:54:27.771Z,1010.79
2016-08-12T01:55:27.761Z,1010.86
2016-08-12T01:56:27.750Z,1010.83
2016-08-12T01:57:27.741Z,1010.81
2016-08-12T01:58:27.728Z,1010.8
2016-08-12T01:59:27.719Z,1010.83
2016-08-12T02:00:27.707Z,1010.83
2016-08-12T02:01:27.695Z,1010.82
2016-08-12T02:02:27.688Z,1010.83
2016-08-12T02:03:27.679Z,1010.82
2016-08-12T02:04:27.667Z,1010.83
2016-08-12T02:05:27.654Z,1010.86
2016-08-12T02:06:27.646Z,1010.85
2016-08-12T02:07:27.632Z,1010.86
2016-08-12T02:08:27.622Z,1010.85
2016-08-12T02:09:27.613Z,1010.87
2016-08-12T02:10:27.602Z,1010.84
2016-08-12T02:11:27.589Z,1010.87
2016-08-12T02:12:27.580Z,1010.86
2016-08-12T02:13:27.571Z,1010.88
2016-08-12T02:14:27.560Z,1010.88
2016-08-12T02:15:27.547Z,1010.85
2016-08-12T02:16:27.538Z,1010.82
2016-08-12T02:17:27.530Z,1010.84
2016-08-12T02:19:27.506Z,1010.85
2016-08-12T02:20:27.495Z,1010.89
2016-08-12T02:21:27.484Z,1010.87
2016-08-12T02:22:27.473Z,1010.87
2016-08-12T02:23:27.464Z,1010.85
2016-08-12T02:24:27.453Z,1010.91
2016-08-12T02:25:27.443Z,1010.89
2016-08-12T02:26:27.432Z,1010.88
2016-08-12T02:27:27.423Z,1010.86
2016-08-12T02:28:27.412Z,1010.84
2016-08-12T02:29:27.402Z,1010.91
2016-08-12T02:30:27.394Z,1010.9
2016-08-12T02:31:27.380Z,1010.89
2016-08-12T02:32:27.370Z,1010.91
2016-08-12T02:34:27.347Z,1010.89
2016-08-12T02:35:27.339Z,1010.89
2016-08-12T02:36:27.325Z,1010.94
2016-08-12T02:37:27.315Z,1010.93
2016-08-12T02:38:27.304Z,1010.91
2016-08-12T02:39:27.296Z,1010.94
2016-08-12T02:40:27.284Z,1010.94
2016-08-12T02:41:27.272Z,1010.94
2016-08-12T02:42:27.263Z,1010.97
2016-08-12T02:43:27.252Z,1010.98
2016-08-12T02:44:27.241Z,1010.95
2016-08-12T02:45:27.231Z,1010.95
2016-08-12T02:46:27.222Z,1010.95
2016-08-12T02:47:27.208Z,1010.98
2016-08-12T02:48:27.213Z,1010.97
2016-08-12T02:49:27.187Z,1010.98
2016-08-12T02:50:27.178Z,1010.95
2016-08-12T02:51:27.167Z,1011
2016-08-12T02:52:27.155Z,1011.01
2016-08-12T02:53:27.147Z,1011.01
2016-08-12T02:54:27.136Z,1011.06
2016-08-12T02:55:27.134Z,1011.04
2016-08-12T02:56:27.116Z,1011.01
2016-08-12T02:57:27.106Z,1011.06
2016-08-12T02:58:27.100Z,1011.03
2016-08-12T02:59:27.082Z,1011.06
2016-08-12T03:00:27.073Z,1011.06
2016-08-12T03:01:27.061Z,1011.05
2016-08-12T03:02:27.051Z,1011.11
2016-08-12T03:04:27.030Z,1011.09
2016-08-12T03:05:27.021Z,1011.09
2016-08-12T03:06:27.009Z,1011.09
2016-08-12T03:07:26.998Z,1011.12
2016-08-12T03:08:26.988Z,1011.11
2016-08-12T03:09:27.179Z,1011.11
2016-08-12T03:10:26.970Z,1011.14
2016-08-12T03:11:26.955Z,1011.11
2016-08-12T03:12:26.945Z,1011.14
2016-08-12T03:13:26.933Z,1011.15
2016-08-12T03:14:26.926Z,1011.14
2016-08-12T03:15:26.914Z,1011.12
2016-08-12T03:16:26.903Z,1011.1
2016-08-12T03:17:26.893Z,1011.09
2016-08-12T03:18:26.884Z,1011.07
2016-08-12T03:19:26.874Z,1011.11
2016-08-12T03:20:26.860Z,1011.14
2016-08-12T03:21:26.850Z,1011.15
2016-08-12T03:22:26.840Z,1011.14
2016-08-12T03:23:26.831Z,1011.16
2016-08-12T03:24:26.820Z,1011.16
2016-08-12T03:25:26.812Z,1011.18
2016-08-12T03:26:26.798Z,1011.12
2016-08-12T03:27:26.788Z,1011.15
2016-08-12T03:28:26.777Z,1011.14
2016-08-12T03:29:26.767Z,1011.15
2016-08-12T03:30:26.761Z,1011.14
2016-08-12T03:31:26.748Z,1011.16
2016-08-12T03:32:26.736Z,1011.16
2016-08-12T09:34:19.742Z,1013.84
2016-08-12T09:35:19.738Z,1013.85
2016-08-12T09:36:19.724Z,1013.91
2016-08-12T09:37:19.717Z,1013.88
2016-08-12T09:38:19.707Z,1013.91
2016-08-12T09:39:19.697Z,1013.93
2016-08-12T09:40:19.699Z,1013.91
2016-08-12T09:41:19.681Z,1013.92
2016-08-12T09:42:19.673Z,1013.96
2016-08-12T09:43:19.665Z,1013.93
2016-08-12T09:44:19.654Z,1013.94
2016-08-12T09:45:19.645Z,1013.94
2016-08-12T09:46:19.640Z,1013.99
2016-08-12T09:47:19.630Z,1014.05
2016-08-12T09:48:19.623Z,1014.03
2016-08-12T09:49:19.615Z,1013.97
2016-08-12T09:50:19.607Z,1014.03
2016-08-12T09:51:19.598Z,1013.97
2016-08-12T09:52:19.588Z,1014
2016-08-12T09:53:19.589Z,1013.92
2016-08-12T09:54:19.571Z,1013.95
2016-08-12T09:55:19.562Z,1013.93
2016-08-12T09:56:19.555Z,1014.02
2016-08-12T09:57:19.550Z,1014.02
2016-08-12T09:58:19.541Z,1014.02
2016-08-12T09:59:19.532Z,1014.03
2016-08-12T10:00:19.522Z,1014.09
2016-08-12T10:01:19.517Z,1014.05
2016-08-12T10:02:19.508Z,1014.07
2016-08-12T10:03:19.498Z,1014.02
2016-08-12T10:04:19.491Z,1014.02
2016-08-12T10:06:19.475Z,1014.05
2016-08-12T10:07:19.472Z,1014.07
2016-08-12T10:08:19.459Z,1014.12
2016-08-12T10:09:19.452Z,1014.12
2016-08-12T10:10:19.445Z,1014.12
2016-08-12T10:11:19.438Z,1014.12
2016-08-12T10:12:19.429Z,1014.07
2016-08-12T10:13:19.421Z,1014.12
2016-08-12T10:14:19.415Z,1014.07
2016-08-12T10:15:19.406Z,1014.1
2016-08-12T10:16:19.402Z,1014.12
2016-08-12T10:17:19.391Z,1014.12
2016-08-12T10:18:19.384Z,1014.16
2016-08-12T10:19:19.377Z,1014.12
2016-08-12T10:21:19.362Z,1014.09
2016-08-12T10:22:19.354Z,1014.08
2016-08-12T10:23:19.349Z,1014.08
2016-08-12T10:24:19.339Z,1014.13
2016-08-12T10:25:19.330Z,1014.11
2016-08-12T10:26:19.326Z,1014.18
2016-08-12T10:27:19.318Z,1014.18
2016-08-12T10:28:19.309Z,1014.15
2016-08-12T10:29:19.303Z,1014.16
2016-08-12T10:30:19.296Z,1014.17
2016-08-12T10:31:19.287Z,1014.19
2016-08-12T10:32:19.279Z,1014.21
2016-08-12T10:33:19.270Z,1014.2
2016-08-12T10:34:19.265Z,1014.26
2016-08-12T10:36:19.247Z,1014.24
2016-08-12T10:37:19.240Z,1014.26
2016-08-12T10:38:19.232Z,1014.19
2016-08-12T10:39:19.223Z,1014.21
2016-08-12T10:40:19.231Z,1014.24
2016-08-12T10:41:19.209Z,1014.16
2016-08-12T10:42:19.200Z,1014.25
2016-08-12T10:43:19.192Z,1014.24
2016-08-12T10:44:19.184Z,1014.23
2016-08-12T10:45:19.228Z,1014.25
2016-08-12T10:46:19.172Z,1014.24
2016-08-12T10:47:19.162Z,1014.2
2016-08-12T10:48:19.154Z,1014.22
2016-08-12T10:49:19.146Z,1014.23
2016-08-12T10:51:19.127Z,1014.24
2016-08-12T10:52:19.122Z,1014.2
2016-08-12T10:53:19.115Z,1014.24
2016-08-12T10:54:19.105Z,1014.25
2016-08-12T10:55:19.098Z,1014.27
2016-08-12T10:56:19.089Z,1014.26
2016-08-12T10:57:19.081Z,1014.24
2016-08-12T10:58:19.071Z,1014.25
2016-08-12T10:59:19.064Z,1014.25
2016-08-12T11:00:19.056Z,1014.26
2016-08-12T11:01:19.047Z,1014.25
2016-08-12T11:02:19.041Z,1014.26
2016-08-12T11:03:19.041Z,1014.29
2016-08-12T11:04:19.027Z,1014.29
2016-08-12T11:06:19.011Z,1014.23
2016-08-12T11:07:19.001Z,1014.27
2016-08-12T11:08:18.993Z,1014.28
2016-08-12T11:09:18.987Z,1014.29
2016-08-12T11:10:18.980Z,1014.27
2016-08-12T11:11:18.971Z,1014.31
2016-08-12T11:12:18.968Z,1014.31
2016-08-12T11:13:18.959Z,1014.31
2016-08-12T11:14:18.945Z,1014.31
2016-08-12T11:15:18.938Z,1014.3
2016-08-12T11:16:18.929Z,1014.32
2016-08-12T11:17:18.923Z,1014.32
2016-08-12T11:18:18.914Z,1014.35
2016-08-12T11:19:18.905Z,1014.28
2016-08-12T11:21:18.890Z,1014.32
2016-08-12T11:22:18.883Z,1014.32
2016-08-12T11:23:18.875Z,1014.3
2016-08-12T11:24:18.867Z,1014.24
2016-08-12T11:25:18.859Z,1014.31
2016-08-12T11:26:18.850Z,1014.32
2016-08-12T11:27:18.842Z,1014.29
2016-08-12T11:28:18.835Z,1014.31
2016-08-12T11:29:18.826Z,1014.35
2016-08-12T11:30:18.832Z,1014.32
2016-08-12T11:31:18.810Z,1014.34
2016-08-12T11:32:18.802Z,1014.35
2016-08-12T11:33:18.794Z,1014.38
2016-08-12T11:34:18.786Z,1014.38
2016-08-12T11:35:18.779Z,1014.35
2016-08-12T11:36:18.774Z,1014.37
2016-08-12T11:37:18.765Z,1014.32
2016-08-12T11:38:18.758Z,1014.36
2016-08-12T11:39:18.750Z,1014.34
2016-08-12T11:40:18.741Z,1014.39
2016-08-12T11:41:18.733Z,1014.41
2016-08-12T11:42:18.738Z,1014.38
2016-08-12T11:43:18.718Z,1014.36
2016-08-12T11:44:18.711Z,1014.4
2016-08-12T11:45:18.702Z,1014.37
2016-08-12T11:46:18.695Z,1014.36
2016-08-12T11:47:18.688Z,1014.41
2016-08-12T11:48:18.693Z,1014.38
2016-08-12T11:49:18.674Z,1014.39
2016-08-12T11:50:18.668Z,1014.4
2016-08-12T11:51:18.660Z,1014.43
2016-08-12T11:52:18.652Z,1014.42
2016-08-12T11:53:18.644Z,1014.42
2016-08-12T11:54:18.640Z,1014.4
2016-08-12T11:55:18.632Z,1014.45
2016-08-12T11:56:18.628Z,1014.48
2016-08-12T11:57:18.625Z,1014.5
2016-08-12T11:58:18.611Z,1014.44
2016-08-12T11:59:18.604Z,1014.45
2016-08-12T12:00:18.597Z,1014.47
2016-08-12T12:01:18.590Z,1014.48
2016-08-12T12:02:18.583Z,1014.47
2016-08-12T12:03:18.576Z,1014.5
2016-08-12T12:04:18.570Z,1014.47
2016-08-12T12:05:18.562Z,1014.57
2016-08-12T12:06:18.557Z,1014.51
2016-08-12T12:07:18.549Z,1014.51
2016-08-12T12:08:18.542Z,1014.52
2016-08-12T12:09:18.535Z,1014.53
2016-08-12T12:10:18.528Z,1014.6
2016-08-12T12:11:18.520Z,1014.55
2016-08-12T12:12:18.514Z,1014.55
2016-08-12T12:13:18.506Z,1014.56
2016-08-12T12:14:18.500Z,1014.52
2016-08-12T12:15:18.493Z,1014.49
2016-08-12T12:16:18.488Z,1014.54
2016-08-12T12:17:18.480Z,1014.57
2016-08-12T12:18:18.474Z,1014.56
2016-08-12T12:19:18.466Z,1014.59
2016-08-12T12:20:18.458Z,1014.62
2016-08-12T12:21:18.453Z,1014.55
2016-08-12T12:22:18.445Z,1014.55
2016-08-12T12:23:18.437Z,1014.61
2016-08-12T12:24:18.431Z,1014.6
2016-08-12T12:25:18.420Z,1014.61
2016-08-12T12:26:18.415Z,1014.55
2016-08-12T12:27:18.407Z,1014.56
2016-08-12T12:28:18.401Z,1014.61
2016-08-12T12:29:18.394Z,1014.52
2016-08-12T12:30:18.386Z,1014.58
2016-08-12T12:31:18.379Z,1014.54
2016-08-12T12:32:18.375Z,1014.54
2016-08-12T12:33:18.386Z,1014.55
2016-08-12T12:34:18.359Z,1014.5
2016-08-12T12:35:18.388Z,1014.52
2016-08-12T12:36:18.344Z,1014.53
2016-08-12T12:37:18.338Z,1014.56
2016-08-12T12:38:18.333Z,1014.58
2016-08-12T12:39:18.325Z,1014.58
2016-08-12T12:41:18.317Z,1014.6
2016-08-12T12:42:18.303Z,1014.64
2016-08-12T12:43:18.310Z,1014.6
2016-08-12T12:44:18.295Z,1014.63
2016-08-12T12:45:18.285Z,1014.62
2016-08-12T12:46:18.277Z,1014.65
2016-08-12T12:47:18.271Z,1014.63
2016-08-12T12:48:18.266Z,1014.64
2016-08-12T12:49:18.256Z,1014.65
2016-08-12T12:50:18.250Z,1014.64
2016-08-12T12:51:18.248Z,1014.62
2016-08-12T12:52:18.235Z,1014.62
2016-08-12T12:53:18.232Z,1014.64
2016-08-12T12:54:18.223Z,1014.71
2016-08-12T12:55:18.216Z,1014.66
2016-08-12T12:56:18.212Z,1014.64
2016-08-12T12:57:18.205Z,1014.66
2016-08-12T12:58:18.196Z,1014.68
2016-08-12T12:59:18.189Z,1014.7
2016-08-12T13:00:18.184Z,1014.67
2016-08-12T13:01:18.176Z,1014.67
2016-08-12T13:02:18.168Z,1014.67
2016-08-12T13:03:18.163Z,1014.75
2016-08-12T13:04:18.158Z,1014.72
2016-08-12T13:05:18.148Z,1014.7
2016-08-12T13:06:18.143Z,1014.74
2016-08-12T13:07:18.136Z,1014.76
2016-08-12T13:08:18.130Z,1014.74
2016-08-12T13:09:18.123Z,1014.83
2016-08-12T13:10:18.116Z,1014.85
2016-08-12T13:11:18.110Z,1014.84
2016-08-12T13:12:18.100Z,1014.86
2016-08-12T13:13:18.094Z,1014.86
2016-08-12T13:14:18.088Z,1014.87
2016-08-12T13:15:18.083Z,1014.87
2016-08-12T13:16:18.078Z,1014.89
2016-08-12T13:17:18.069Z,1014.88
2016-08-12T13:18:18.060Z,1014.89
2016-08-12T13:19:18.053Z,1014.95
2016-08-12T13:20:18.047Z,1014.93
2016-08-12T13:21:18.038Z,1014.88
2016-08-12T13:22:18.032Z,1014.9
2016-08-12T13:23:18.027Z,1014.93
2016-08-12T13:24:18.019Z,1014.95
2016-08-12T13:25:18.013Z,1014.9
2016-08-12T13:26:18.020Z,1014.94
2016-08-12T13:27:17.998Z,1014.93
2016-08-12T13:28:17.991Z,1014.91
2016-08-12T13:29:17.984Z,1014.92
2016-08-12T13:30:17.979Z,1014.94
2016-08-12T13:31:17.969Z,1014.99
2016-08-12T13:32:17.965Z,1014.95
2016-08-12T13:33:17.957Z,1014.99
2016-08-12T13:34:17.949Z,1015
2016-08-12T13:35:17.942Z,1014.95
2016-08-12T13:36:17.935Z,1014.95
2016-08-12T13:37:17.930Z,1014.97
2016-08-12T13:38:17.921Z,1014.93
2016-08-12T13:39:17.920Z,1014.96
2016-08-12T13:40:17.908Z,1015
2016-08-12T13:41:17.903Z,1014.96
2016-08-12T13:42:17.893Z,1014.99
2016-08-12T13:43:17.887Z,1014.98
2016-08-12T13:44:17.882Z,1014.96
2016-08-12T13:45:17.874Z,1014.96
2016-08-12T13:46:17.867Z,1014.94
2016-08-12T13:47:17.860Z,1014.95
2016-08-12T13:48:17.854Z,1014.98
2016-08-12T13:49:17.847Z,1014.96
2016-08-12T13:50:17.848Z,1014.95
2016-08-12T13:51:17.837Z,1014.9
2016-08-12T13:52:17.827Z,1014.91
2016-08-12T13:53:17.820Z,1014.9
2016-08-12T13:54:17.815Z,1014.92
2016-08-12T13:55:17.807Z,1014.93
2016-08-12T13:56:17.812Z,1014.94
2016-08-12T13:57:17.792Z,1014.93
2016-08-12T13:58:17.792Z,1014.91
2016-08-12T13:59:17.779Z,1014.93
2016-08-12T14:00:17.775Z,1014.88
2016-08-12T14:01:17.766Z,1014.85
2016-08-12T14:02:17.757Z,1014.89
2016-08-12T14:03:17.754Z,1014.85
2016-08-12T14:04:17.745Z,1014.91
2016-08-12T14:05:17.742Z,1014.93
2016-08-12T14:06:17.733Z,1014.94
2016-08-12T14:07:17.725Z,1014.92
2016-08-12T14:08:17.719Z,1014.88
2016-08-12T14:09:17.714Z,1014.88
2016-08-12T14:10:17.707Z,1014.92
2016-08-12T14:11:17.700Z,1014.89
2016-08-12T14:12:17.697Z,1014.89
2016-08-12T14:13:17.689Z,1014.88
2016-08-12T14:14:17.681Z,1014.85
2016-08-12T14:15:17.676Z,1014.87
2016-08-12T14:16:17.669Z,1014.91
2016-08-12T14:17:17.664Z,1014.9
2016-08-12T14:18:17.656Z,1014.87
2016-08-12T14:19:17.654Z,1014.92
2016-08-12T14:20:17.645Z,1014.92
2016-08-12T14:21:17.641Z,1014.95
2016-08-12T14:22:17.633Z,1014.94
2016-08-12T14:24:17.620Z,1014.92
2016-08-12T14:25:17.614Z,1014.9
2016-08-12T14:26:17.607Z,1014.9
2016-08-12T14:27:17.602Z,1014.89
2016-08-12T14:28:17.594Z,1014.92
2016-08-12T14:29:17.589Z,1014.96
2016-08-12T14:30:17.583Z,1014.91
2016-08-12T14:31:17.584Z,1014.91
2016-08-12T14:32:17.569Z,1014.93
2016-08-12T14:33:17.563Z,1014.91
2016-08-12T14:34:17.557Z,1014.85
2016-08-12T14:35:17.551Z,1014.84
2016-08-12T14:36:17.559Z,1014.87
2016-08-12T14:37:17.542Z,1014.89
2016-08-12T14:38:17.740Z,1014.86
2016-08-12T14:39:17.529Z,1014.86
2016-08-12T14:40:17.521Z,1014.93
2016-08-12T14:41:17.514Z,1014.88
2016-08-12T14:42:17.509Z,1014.92
2016-08-12T14:43:17.505Z,1014.92
2016-08-12T14:44:17.495Z,1014.9
2016-08-12T14:45:17.489Z,1014.94
2016-08-12T14:46:17.484Z,1014.86
2016-08-12T14:47:17.479Z,1014.92
2016-08-12T14:48:17.472Z,1014.9
2016-08-12T14:49:17.469Z,1014.87
2016-08-12T14:50:17.461Z,1014.86
2016-08-12T14:51:17.455Z,1014.86
2016-08-12T14:52:17.448Z,1014.86
2016-08-12T14:53:17.444Z,1014.87
2016-08-12T14:54:17.437Z,1014.85
2016-08-12T14:55:17.432Z,1014.85
2016-08-12T14:56:17.425Z,1014.87
2016-08-12T14:57:17.419Z,1014.87
2016-08-12T14:58:17.415Z,1014.86
2016-08-12T14:59:17.409Z,1014.87
2016-08-12T15:00:17.402Z,1014.92
2016-08-12T15:01:17.397Z,1014.91
2016-08-12T15:02:17.393Z,1014.83
2016-08-12T15:03:17.387Z,1014.84
2016-08-12T15:04:17.382Z,1014.85
2016-08-12T15:05:17.375Z,1014.85
2016-08-12T15:06:17.374Z,1014.85
2016-08-12T15:07:17.364Z,1014.86
2016-08-12T15:08:17.358Z,1014.87
2016-08-12T15:09:17.353Z,1014.83
2016-08-12T15:10:17.548Z,1014.8
2016-08-12T15:11:17.348Z,1014.76
2016-08-12T15:12:17.335Z,1014.81
2016-08-12T15:13:17.330Z,1014.8
2016-08-12T15:14:17.325Z,1014.85
2016-08-12T15:15:17.320Z,1014.83
2016-08-12T15:16:17.312Z,1014.81
2016-08-12T15:17:17.306Z,1014.8
2016-08-12T15:18:17.300Z,1014.78
2016-08-12T15:19:17.296Z,1014.79
2016-08-12T15:20:17.288Z,1014.81
2016-08-12T15:21:17.283Z,1014.78
2016-08-12T15:22:17.275Z,1014.78
2016-08-12T15:23:17.271Z,1014.76
2016-08-12T15:24:17.263Z,1014.74
2016-08-12T15:25:17.259Z,1014.78
2016-08-12T15:26:17.263Z,1014.72
2016-08-12T15:27:17.246Z,1014.77
2016-08-12T15:28:17.240Z,1014.72
2016-08-12T15:29:17.233Z,1014.74
2016-08-12T15:30:17.228Z,1014.72
2016-08-12T15:31:17.222Z,1014.77
2016-08-12T15:32:17.215Z,1014.77
2016-08-12T15:33:17.210Z,1014.78
2016-08-12T15:34:17.203Z,1014.76
2016-08-12T15:36:17.201Z,1014.82
2016-08-12T15:38:17.180Z,1014.77
2016-08-12T15:39:17.175Z,1014.75
2016-08-12T15:40:17.168Z,1014.75
2016-08-12T15:41:17.162Z,1014.79
2016-08-12T15:42:17.158Z,1014.81
2016-08-12T15:43:17.153Z,1014.81
2016-08-12T15:44:17.147Z,1014.84
2016-08-12T15:45:17.140Z,1014.82
2016-08-12T15:46:17.138Z,1014.82
2016-08-12T15:47:17.126Z,1014.84
2016-08-12T15:48:17.122Z,1014.83
2016-08-12T15:49:17.118Z,1014.83
2016-08-12T15:50:17.108Z,1014.78
2016-08-12T15:51:17.113Z,1014.8
2016-08-12T15:52:17.097Z,1014.78
2016-08-12T15:53:17.092Z,1014.83
2016-08-12T15:54:17.086Z,1014.84
2016-08-12T15:55:17.080Z,1014.84
2016-08-12T15:56:17.076Z,1014.89
2016-08-12T15:57:17.075Z,1014.91
2016-08-12T15:58:17.065Z,1014.88
2016-08-12T15:59:17.060Z,1014.92
2016-08-12T16:00:17.051Z,1014.86
2016-08-12T16:01:17.046Z,1014.88
2016-08-12T16:02:17.041Z,1014.9
2016-08-12T16:03:17.038Z,1014.85
2016-08-12T16:04:17.030Z,1014.88
2016-08-12T16:05:17.024Z,1014.85
2016-08-12T16:06:17.035Z,1014.83
2016-08-12T16:07:17.015Z,1014.85
2016-08-12T16:08:17.008Z,1014.85
2016-08-12T16:09:17.004Z,1014.86
2016-08-12T16:10:17.001Z,1014.85
2016-08-12T16:11:17.000Z,1014.78
2016-08-12T16:12:17.000Z,1014.86
2016-08-12T16:13:16.992Z,1014.85
2016-08-12T16:14:16.988Z,1014.87
2016-08-12T16:15:16.981Z,1014.85
2016-08-12T16:16:16.973Z,1014.85
2016-08-12T16:17:16.983Z,1014.88
2016-08-12T16:18:16.968Z,1014.87
2016-08-12T16:19:17.014Z,1014.83
2016-08-12T16:20:16.954Z,1014.9
2016-08-12T16:21:16.954Z,1014.88
2016-08-12T16:22:16.944Z,1014.91
2016-08-12T16:23:16.951Z,1014.88
2016-08-12T16:24:16.941Z,1014.89
2016-08-12T16:25:16.972Z,1014.89
2016-08-12T16:26:16.919Z,1014.85
2016-08-12T16:27:16.917Z,1014.87
2016-08-12T16:28:16.916Z,1014.85
2016-08-12T16:29:16.901Z,1014.85
2016-08-12T16:30:16.903Z,1014.88
2016-08-12T16:31:16.894Z,1014.86
2016-08-12T16:32:16.889Z,1014.85
2016-08-12T16:33:16.996Z,1014.85
2016-08-12T16:34:16.874Z,1014.85
2016-08-12T16:35:16.873Z,1014.82
2016-08-12T16:36:16.866Z,1014.84
2016-08-12T16:37:16.865Z,1014.84
2016-08-12T16:38:16.859Z,1014.81
2016-08-12T16:39:16.845Z,1014.78
2016-08-12T16:40:16.856Z,1014.79
2016-08-12T16:41:16.840Z,1014.81
2016-08-12T16:42:16.824Z,1014.78
2016-08-12T16:43:16.817Z,1014.82
2016-08-12T16:44:16.809Z,1014.8
2016-08-12T16:45:16.804Z,1014.82
2016-08-12T16:46:16.796Z,1014.76
2016-08-12T16:47:16.791Z,1014.78
2016-08-12T16:48:16.785Z,1014.79
2016-08-12T16:49:16.780Z,1014.8
2016-08-12T16:50:16.773Z,1014.76
2016-08-12T16:51:16.767Z,1014.76
2016-08-12T16:52:16.760Z,1014.73
2016-08-12T16:53:16.754Z,1014.72
2016-08-12T16:54:16.750Z,1014.71
2016-08-12T16:55:16.742Z,1014.74
2016-08-12T16:56:16.735Z,1014.71
2016-08-12T16:57:16.729Z,1014.71
2016-08-12T16:58:16.724Z,1014.74
2016-08-12T16:59:16.718Z,1014.74
2016-08-12T17:00:16.709Z,1014.74
2016-08-12T17:01:16.705Z,1014.73
2016-08-12T17:02:16.696Z,1014.75
2016-08-12T17:03:16.690Z,1014.76
2016-08-12T17:04:16.684Z,1014.73
2016-08-12T17:05:16.678Z,1014.75
2016-08-12T17:06:16.673Z,1014.75
2016-08-12T17:07:16.668Z,1014.77
2016-08-12T17:08:16.659Z,1014.77
2016-08-12T17:09:16.654Z,1014.8
2016-08-12T17:10:16.651Z,1014.8
2016-08-12T17:11:16.640Z,1014.81
2016-08-12T17:12:16.634Z,1014.78
2016-08-12T17:13:16.628Z,1014.79
2016-08-12T17:14:16.620Z,1014.82
2016-08-12T17:15:16.614Z,1014.8
2016-08-12T17:16:16.608Z,1014.74
2016-08-12T17:17:16.601Z,1014.76
2016-08-12T17:18:16.594Z,1014.74
2016-08-12T17:19:16.589Z,1014.74
2016-08-12T17:20:16.582Z,1014.71
2016-08-12T17:21:16.576Z,1014.69
2016-08-12T17:22:16.568Z,1014.72
2016-08-12T17:23:16.562Z,1014.71
2016-08-12T17:24:16.555Z,1014.71
2016-08-12T17:25:16.547Z,1014.69
2016-08-12T17:26:16.540Z,1014.7
2016-08-12T17:27:16.535Z,1014.71
2016-08-12T17:28:16.528Z,1014.69
2016-08-12T17:29:16.524Z,1014.72
2016-08-12T17:30:16.516Z,1014.68
2016-08-12T17:31:16.508Z,1014.73
2016-08-12T17:32:16.503Z,1014.69
2016-08-12T17:33:16.604Z,1014.67
2016-08-12T17:34:16.488Z,1014.7
2016-08-12T17:35:16.483Z,1014.68
2016-08-12T17:36:16.473Z,1014.66
2016-08-12T17:37:16.474Z,1014.67
2016-08-12T17:38:16.464Z,1014.67
2016-08-12T17:39:16.513Z,1014.68
2016-08-12T17:40:16.446Z,1014.61
2016-08-12T17:41:16.457Z,1014.62
2016-08-12T17:42:16.440Z,1014.67
2016-08-12T17:43:16.429Z,1014.61
2016-08-12T17:44:16.419Z,1014.63
2016-08-12T17:45:16.415Z,1014.65
2016-08-12T17:46:16.406Z,1014.61
2016-08-12T17:47:16.397Z,1014.61
2016-08-12T17:48:16.392Z,1014.63
2016-08-12T17:49:16.386Z,1014.67
2016-08-12T17:50:16.378Z,1014.69
2016-08-12T17:51:16.373Z,1014.64
2016-08-12T17:52:16.363Z,1014.63
2016-08-12T17:53:16.357Z,1014.65
2016-08-12T17:54:16.349Z,1014.66
2016-08-12T17:55:16.343Z,1014.64
2016-08-12T17:56:16.335Z,1014.63
2016-08-12T17:57:16.328Z,1014.63
2016-08-12T17:58:16.321Z,1014.59
2016-08-12T17:59:16.315Z,1014.61
2016-08-12T18:00:16.308Z,1014.65
2016-08-12T18:01:16.299Z,1014.65
2016-08-12T18:02:16.294Z,1014.68
2016-08-12T18:03:16.286Z,1014.71
2016-08-12T18:04:16.281Z,1014.66
2016-08-12T18:05:16.272Z,1014.68
2016-08-12T18:06:16.264Z,1014.65
2016-08-12T18:07:16.260Z,1014.69
2016-08-12T18:08:16.252Z,1014.69
2016-08-12T18:09:16.243Z,1014.67
2016-08-12T18:10:16.236Z,1014.68
2016-08-12T18:11:16.231Z,1014.67
2016-08-12T18:12:16.222Z,1014.71
2016-08-12T18:13:16.227Z,1014.72
2016-08-12T18:14:16.207Z,1014.72
2016-08-12T18:15:16.199Z,1014.75
2016-08-12T18:16:16.193Z,1014.79
2016-08-12T18:17:16.189Z,1014.75
2016-08-12T18:18:16.181Z,1014.77
2016-08-12T18:19:16.172Z,1014.76
2016-08-12T18:20:16.164Z,1014.77
2016-08-12T18:21:16.158Z,1014.82
2016-08-12T18:22:16.152Z,1014.82